Flight Track Log - Related Links

Times and Time Zones

All times are in EDT time to prevent confusion due to time zone crossing. See the SIL3994 flight status page for this flight to view local times or setup timezone preferences in your user account.


Time Position Orientation Groundspeed Altitude Reporting Facility
EDT Latitude Longitude Course Direction KTS MPH feet Rate Location/Type
Tue 06:35:46 PM 26.0747 -80.1458 318° Northwest 127 146 700  Level Miami Center
Tue 06:37:06 PM 26.1075 -80.0867 58° Northeast 187 215 2,300 1,414 Climbing Miami Center
Tue 06:38:06 PM 26.1497 -80.0600 30° Northeast 173 199 4,000 1,636 Climbing Miami Center
Tue 06:39:07 PM 26.2019 -80.0592 North 181 208 5,600 1,346 Climbing Miami Center
Tue 06:39:53 PM 26.2353 -80.0647 351° North 181 208 6,400 1,358 Climbing Miami Center
Tue 06:40:53 PM 26.2808 -80.0822 341° North 159 183 8,000 1,714 Climbing Miami Center
Tue 06:41:00 PM 26.3985 -80.3152 318° Northwest  Level FlightAware Approximate
Tue 06:41:03 PM 26.2892 -80.0892 323° Northwest 158 182 8,400  Level Miami Center
Tue 06:41:53 PM 26.3286 -80.0972 350° North 165 190 9,300 1,145 Climbing Miami Center
Tue 06:42:53 PM 26.3569 -80.1306 313° West 160 184 10,500 1,100 Climbing Miami Center
Tue 06:43:53 PM 26.3897 -80.1686 314° West 160 184 11,500 1,150 Climbing Miami Center
Tue 06:44:53 PM 26.4306 -80.2022 324° Northwest 167 192 12,800 1,150 Climbing Miami Center
Tue 06:45:53 PM 26.4697 -80.2219 336° Northwest 173 199 13,800 1,000 Climbing Miami Center
Tue 06:46:53 PM 26.5172 -80.2511 331° Northwest 173 199 14,800 600 Climbing Miami Center
Tue 06:47:53 PM 26.5647 -80.2781 333° Northwest 188 216 15,000 100 Climbing Miami Center
Tue 06:48:53 PM 26.6244 -80.3144 331° Northwest 216 249 15,000  Level Miami Center
Tue 06:49:53 PM 26.6778 -80.3464 332° Northwest 231 266 15,000  Level Miami Center
Tue 06:50:53 PM 26.7458 -80.3878 331° Northwest 244 281 15,000  Level Miami Center
Tue 06:51:53 PM 26.8097 -80.4247 333° Northwest 244 281 15,000  Level Miami Center
Tue 06:52:53 PM 26.8692 -80.4614 331° Northwest 250 288 15,000  Level Miami Center
Tue 06:53:53 PM 26.9331 -80.4983 333° Northwest 250 288 15,000  Level Miami Center
Tue 06:54:53 PM 26.9886 -80.5328 331° Northwest 250 288 15,000  Level Miami Center
Tue 06:55:53 PM 27.0586 -80.5722 333° Northwest 250 288 15,000  Level Miami Center
Tue 06:56:53 PM 27.1183 -80.6092 331° Northwest 250 288 15,000  Level Miami Center
Tue 06:57:53 PM 27.1819 -80.6486 331° Northwest 250 288 15,000  Level Miami Center
Tue 06:58:53 PM 27.2375 -80.6808 333° Northwest 250 288 15,000  Level Miami Center
Tue 06:59:53 PM 27.2989 -80.7203 330° Northwest 250 288 15,000  Level Miami Center
Tue 07:00:53 PM 27.3689 -80.7622 332° Northwest 250 288 15,000  Level Miami Center
Tue 07:01:53 PM 27.4242 -80.7969 331° Northwest 250 288 15,000 -350 Level Miami Center
Tue 07:02:53 PM 27.4900 -80.8367 332° Northwest 250 288 14,300 -850 Descending Miami Center
Tue 07:03:53 PM 27.5558 -80.8764 332° Northwest 256 295 13,300 -923 Descending Miami Center
Tue 07:05:42 PM 27.6667 -80.9500 330° Northwest 234 269 11,700 -857 Descending Orlando TRACON
Tue 07:06:48 PM 27.7333 -80.9833 336° Northwest 227 261 10,800 -803 Descending Orlando TRACON
Tue 07:07:49 PM 27.7833 -81.0167 329° Northwest 229 264 10,000 -417 Descending Orlando TRACON
Tue 07:08:43 PM 27.8500 -81.0500 336° Northwest 238 274 10,000  Level Orlando TRACON
Tue 07:09:49 PM 27.9000 -81.0833 329° Northwest 237 273 10,000  Level Orlando TRACON
Tue 07:10:49 PM 27.9667 -81.1167 336° Northwest 235 270 10,000 -53 Level Orlando TRACON
Tue 07:11:43 PM 28.0333 -81.1167 360° North 245 282 9,900 -500 Descending Orlando TRACON
Tue 07:12:37 PM 28.0833 -81.1333 344° North 246 283 9,100 -450 Descending Orlando TRACON
Tue 07:13:43 PM 28.1667 -81.1333 360° North 243 280 9,000 -48 Descending Orlando TRACON
Tue 07:14:43 PM 28.2333 -81.1500 348° North 244 281 9,000  Level Orlando TRACON
Tue 07:15:49 PM 28.3000 -81.1500 360° North 246 283 9,000  Level Orlando TRACON
Tue 07:16:43 PM 28.3667 -81.1667 348° North 245 282 9,000 -278 Level Orlando TRACON
Tue 07:17:37 PM 28.4333 -81.1833 348° North 251 289 8,500 -895 Descending Orlando TRACON
Tue 07:18:37 PM 28.5000 -81.1833 360° North 242 278 7,300 -1,364 Descending Orlando TRACON
Tue 07:19:49 PM 28.5667 -81.2000 348° North 231 266 5,500 -1,381 Descending Orlando TRACON
Tue 07:20:43 PM 28.6000 -81.2333 319° Northwest 182 209 4,400 -1,400 Descending Orlando TRACON
Tue 07:21:49 PM 28.6167 -81.3000 286° West 177 204 2,700 -905 Descending Orlando TRACON
Tue 07:22:49 PM 28.5833 -81.3333 221° Southwest 164 189 2,500 -158 Descending Orlando TRACON
Tue 07:23:43 PM 28.5500 -81.3333 180° South 157 181 2,400 -526 Descending Orlando TRACON
Tue 07:24:43 PM 28.5000 -81.3167 164° South 131 151 1,500 -947 Descending Orlando TRACON
Tue 07:25:37 PM 28.4667 -81.3167 180° South 133 153 600 -1,000 Descending Orlando TRACON

Login

Don't have an account? Register now (free) for customized features, flight alerts, and more!